Charfield, United Kingdom
Current Conditions -  °F | °C
As of 12:50 PM on Thursday 30 Oct 2014 (Local Time) from EGBJ Reporting Station
Broken Clouds Broken Clouds  
Wind Chill: 18°   Ceiling: 4000
Heat Index: 18°   Visibility: 6mi
Dew Point: 15°   Wind: 9mph
Humidity: 83%   Direction: 200°SSW
Pressure: 30.03"   Gusts: NA
Location:  51.63°N, 2.41°W
Report Text: EGBJ 301250Z 20008KT 9999 FEW012 BKN040 18/15 Q1017
Loading
Personal Weather Stations






























Interactive Weather Map
Tropical Storm Tracking
New forecast layout! Learn more

10-Day Weather Forecast

Advertisements
Track Severe Weather on mobile